LFRJ 300500Z AUTO 14008KT CAVOK 16/06 Q1019

ElémentsDécodage
LFRJ Station météo située sur l'aérodrome de LANDIVISIAU
300500Z émis le 30 du mois à 05h00 UTC
AUTO Bulletin édité par un automate
14008KT vent du 140°, 08 noeuds
CAVOK Ceiling And Visibility OK
- Visibilité de 10 Km ou plus
- Pas de nuage au-dessous de 1500m ou au-dessous de l'altitude minimale du secteur la plus élevée (si>1500m) et absence de CB
- pas de temps présent significatif
16/06 température 16°C, point de rosée 06°C
 soit une humidité relative de 51%
Q1019 la pression au niveau de la mer (QNH) est de 1019 hPa